createdAt,value
2023-01-22T00:03:16.590Z,96073.13
2023-01-22T00:08:20.024Z,96070.22
2023-01-22T00:13:23.217Z,96068.59
2023-01-22T00:18:26.431Z,96072.31
2023-01-22T00:23:29.576Z,96068.13
2023-01-22T00:28:32.813Z,96065.69
2023-01-22T00:33:35.903Z,96073.66
2023-01-22T00:38:38.964Z,96070.03
2023-01-22T00:43:42.117Z,96063.81
2023-01-22T00:48:46.209Z,96069.41
2023-01-22T00:53:49.377Z,96071.03
2023-01-22T00:58:52.439Z,96066.31
2023-01-22T01:03:55.531Z,96071.13
2023-01-22T01:08:58.713Z,96072.63
2023-01-22T01:14:01.792Z,96074.13
2023-01-22T01:19:05.010Z,96070.44
2023-01-22T01:24:08.218Z,96079.34
2023-01-22T01:29:11.394Z,96081.09
2023-01-22T01:34:14.543Z,96086.16
2023-01-22T01:39:17.622Z,96075.63
2023-01-22T01:44:20.683Z,96083.16
2023-01-22T01:49:23.852Z,96081.44
2023-01-22T01:54:26.926Z,96082.00
2023-01-22T01:59:33.405Z,96080.16
2023-01-22T02:04:36.528Z,96075.84
2023-01-22T02:09:39.699Z,96074.00
2023-01-22T02:14:42.806Z,96082.78
2023-01-22T02:19:45.925Z,96075.31
2023-01-22T02:24:49.181Z,96078.72
2023-01-22T02:29:52.340Z,96069.63
2023-01-22T02:34:55.415Z,96077.81
2023-01-22T02:39:58.632Z,96078.13
2023-01-22T02:45:01.673Z,96085.94
2023-01-22T02:50:04.997Z,96091.91
2023-01-22T02:55:08.061Z,96086.44
2023-01-22T03:00:11.308Z,96078.19
2023-01-22T03:05:14.446Z,96078.38
2023-01-22T03:10:17.909Z,96072.75
2023-01-22T03:15:38.525Z,96087.38
2023-01-22T03:20:59.309Z,96076.66
2023-01-22T03:26:02.494Z,96077.19
2023-01-22T03:31:05.673Z,96070.38
2023-01-22T03:36:08.773Z,96087.72
2023-01-22T03:41:11.911Z,96084.47
2023-01-22T03:46:15.083Z,96089.28
2023-01-22T03:51:18.312Z,96091.97
2023-01-22T03:56:21.560Z,96090.25
2023-01-22T04:01:25.648Z,96097.16
2023-01-22T04:06:28.745Z,96104.78
2023-01-22T04:11:31.848Z,96103.59
2023-01-22T04:16:35.877Z,96110.13
2023-01-22T04:21:39.321Z,96108.94
2023-01-22T04:26:42.401Z,96122.72
2023-01-22T04:31:45.812Z,96117.66
2023-01-22T04:36:49.129Z,96116.38
2023-01-22T04:41:52.234Z,96126.28
2023-01-22T04:46:55.302Z,96127.38
2023-01-22T04:51:58.426Z,96127.56
2023-01-22T04:57:01.479Z,96129.47
2023-01-22T05:02:04.527Z,96130.72
2023-01-22T05:07:07.688Z,96133.91
2023-01-22T05:12:10.745Z,96130.19
2023-01-22T05:17:13.889Z,96140.25
2023-01-22T05:22:16.938Z,96140.63
2023-01-22T05:27:20.062Z,96146.44
2023-01-22T05:32:23.178Z,96151.19
2023-01-22T05:37:26.367Z,96151.38
2023-01-22T05:42:29.442Z,96156.97
2023-01-22T05:47:32.520Z,96162.16
2023-01-22T05:52:35.966Z,96163.53
2023-01-22T05:57:39.252Z,96167.69
2023-01-22T06:02:42.389Z,96167.97
2023-01-22T06:07:45.613Z,96179.41
2023-01-22T06:12:48.671Z,96185.28
2023-01-22T06:17:52.072Z,96184.03
2023-01-22T06:22:55.199Z,96176.25
2023-01-22T06:27:58.399Z,96183.22
2023-01-22T06:33:01.476Z,96194.19
2023-01-22T06:38:04.627Z,96195.72
2023-01-22T06:43:10.594Z,96192.13
2023-01-22T06:48:13.925Z,96194.91
2023-01-22T06:53:17.226Z,96196.28
2023-01-22T06:58:20.380Z,96201.47
2023-01-22T07:03:23.618Z,96211.81
2023-01-22T07:08:27.913Z,96218.44
2023-01-22T07:13:30.992Z,96222.59
2023-01-22T07:18:34.090Z,96223.81
2023-01-22T07:23:37.230Z,96231.22
2023-01-22T07:28:40.425Z,96226.63
2023-01-22T07:33:43.535Z,96230.25
2023-01-22T07:38:46.655Z,96226.34
2023-01-22T07:43:50.169Z,96233.69
2023-01-22T07:48:53.375Z,96240.50
2023-01-22T07:53:56.544Z,96235.16
2023-01-22T07:58:59.596Z,96233.75
2023-01-22T08:04:02.807Z,96231.03
2023-01-22T08:09:05.955Z,96229.50
2023-01-22T08:14:08.981Z,96245.03
2023-01-22T08:19:12.204Z,96250.09
2023-01-22T08:24:15.396Z,96241.06
2023-01-22T08:29:18.506Z,96248.03
2023-01-22T08:34:21.914Z,96246.03
2023-01-22T08:39:25.065Z,96249.09
2023-01-22T08:44:28.200Z,96256.97
2023-01-22T08:49:31.680Z,96257.47
2023-01-22T08:54:34.877Z,96266.41
2023-01-22T08:59:38.086Z,96272.66
2023-01-22T09:04:41.867Z,96281.69
2023-01-22T09:09:45.149Z,96289.31
2023-01-22T09:14:48.217Z,96297.66
2023-01-22T09:19:51.529Z,96305.56
2023-01-22T09:24:55.864Z,96313.78
2023-01-22T09:29:59.034Z,96323.47
2023-01-22T09:35:02.111Z,96323.69
2023-01-22T09:40:05.202Z,96321.50
2023-01-22T09:45:08.437Z,96326.88
2023-01-22T09:50:11.528Z,96321.41
2023-01-22T09:55:14.619Z,96333.06
2023-01-22T10:00:18.586Z,96323.53
2023-01-22T10:05:21.955Z,96326.94
2023-01-22T10:10:25.133Z,96323.66
2023-01-22T10:15:28.209Z,96332.19
2023-01-22T10:20:31.350Z,96325.81
2023-01-22T10:25:34.380Z,96325.53
2023-01-22T10:30:43.436Z,96327.84
2023-01-22T10:35:46.546Z,96330.75
2023-01-22T10:40:49.788Z,96333.88
2023-01-22T10:45:53.089Z,96323.81
2023-01-22T10:50:56.209Z,96332.81
2023-01-22T10:55:59.385Z,96342.56
2023-01-22T11:01:02.749Z,96331.47
2023-01-22T11:06:05.873Z,96336.16
2023-01-22T11:11:09.103Z,96332.72
2023-01-22T11:16:12.194Z,96320.31
2023-01-22T11:21:15.327Z,96321.16
2023-01-22T11:26:18.439Z,96321.97
2023-01-22T11:31:22.156Z,96319.88
2023-01-22T11:36:24.806Z,96313.81
2023-01-22T11:41:27.643Z,96326.44
2023-01-22T11:46:30.349Z,96319.16
2023-01-22T11:51:32.941Z,96319.47
2023-01-22T11:56:35.790Z,96316.66
2023-01-22T12:01:38.415Z,96313.88
2023-01-22T12:06:41.225Z,96299.31
2023-01-22T12:11:44.046Z,96302.34
2023-01-22T12:16:46.704Z,96294.41
2023-01-22T12:21:49.440Z,96300.09
2023-01-22T12:26:52.107Z,96299.69
2023-01-22T12:31:54.911Z,96300.44
2023-01-22T12:36:57.604Z,96305.72
2023-01-22T12:42:00.288Z,96305.50
2023-01-22T12:47:03.028Z,96314.00
2023-01-22T12:52:05.843Z,96319.06
2023-01-22T12:57:09.174Z,96330.72
2023-01-22T13:02:12.021Z,96328.47
2023-01-22T13:07:15.282Z,96332.75
2023-01-22T13:12:18.005Z,96331.16
2023-01-22T13:17:21.464Z,96328.31
2023-01-22T13:22:24.117Z,96327.03
2023-01-22T13:27:26.831Z,96335.13
2023-01-22T13:32:30.658Z,96341.50
2023-01-22T13:37:35.628Z,96345.63
2023-01-22T13:42:38.482Z,96343.00
2023-01-22T13:47:41.271Z,96347.69
2023-01-22T13:52:44.330Z,96342.19
2023-01-22T13:57:47.160Z,96357.50
2023-01-22T14:02:49.826Z,96362.69
2023-01-22T14:07:52.439Z,96360.50
2023-01-22T14:12:55.242Z,96364.91
2023-01-22T14:17:58.298Z,96366.09
2023-01-22T14:23:00.933Z,96370.22
2023-01-22T14:28:03.781Z,96372.47
2023-01-22T14:33:06.669Z,96379.00
2023-01-22T14:38:09.406Z,96385.34
2023-01-22T14:43:12.196Z,96392.53
2023-01-22T14:48:14.895Z,96404.06
2023-01-22T14:53:17.731Z,96402.22
2023-01-22T14:58:20.381Z,96407.94
2023-01-22T15:03:23.366Z,96418.03
2023-01-22T15:08:26.236Z,96415.84
2023-01-22T15:13:28.989Z,96422.84
2023-01-22T15:18:31.707Z,96416.97
2023-01-22T15:23:34.448Z,96427.13
2023-01-22T15:28:37.084Z,96425.50
2023-01-22T15:33:39.864Z,96426.31
2023-01-22T15:38:42.562Z,96433.69
2023-01-22T15:43:45.490Z,96428.50
2023-01-22T15:48:48.179Z,96431.38
2023-01-22T15:53:50.915Z,96441.03
2023-01-22T15:58:53.709Z,96436.84
2023-01-22T16:03:56.459Z,96438.03
2023-01-22T16:08:59.456Z,96441.31
2023-01-22T16:14:02.655Z,96437.13
2023-01-22T16:19:05.393Z,96444.38
2023-01-22T16:24:08.163Z,96442.84
2023-01-22T16:29:10.887Z,96450.63
2023-01-22T16:34:13.675Z,96465.75
2023-01-22T16:39:16.371Z,96477.69
2023-01-22T16:44:19.130Z,96469.28
2023-01-22T16:49:21.935Z,96477.13
2023-01-22T16:54:27.280Z,96479.09
2023-01-22T16:59:30.083Z,96474.38
2023-01-22T17:04:32.844Z,96481.44
2023-01-22T17:09:36.333Z,96494.31
2023-01-22T17:14:39.086Z,96485.50
2023-01-22T17:19:41.834Z,96494.22
2023-01-22T17:24:44.697Z,96493.38
2023-01-22T17:29:47.360Z,96494.09
2023-01-22T17:34:50.037Z,96504.25
2023-01-22T17:39:52.826Z,96503.56
2023-01-22T17:44:55.507Z,96504.50
2023-01-22T17:49:58.198Z,96510.81
2023-01-22T17:55:01.191Z,96508.25
2023-01-22T18:00:04.095Z,96510.25
2023-01-22T18:05:08.708Z,96517.03
2023-01-22T18:10:13.387Z,96516.72
2023-01-22T18:15:16.123Z,96528.19
2023-01-22T18:20:18.736Z,96529.28
2023-01-22T18:25:21.395Z,96537.34
2023-01-22T18:30:24.096Z,96527.13
2023-01-22T18:35:27.832Z,96528.25
2023-01-22T18:40:30.502Z,96532.69
2023-01-22T18:45:33.226Z,96541.09
2023-01-22T18:50:35.875Z,96546.03
2023-01-22T18:55:38.555Z,96557.94
2023-01-22T19:00:41.239Z,96551.31
2023-01-22T19:05:44.174Z,96559.34
2023-01-22T19:10:47.997Z,96564.75
2023-01-22T19:15:50.797Z,96554.31
2023-01-22T19:20:54.366Z,96565.31
2023-01-22T19:25:57.288Z,96570.09
2023-01-22T19:31:00.466Z,96570.44
2023-01-22T19:36:03.441Z,96580.38
2023-01-22T19:41:06.347Z,96593.47
2023-01-22T19:46:09.406Z,96594.19
2023-01-22T19:51:12.415Z,96599.66
2023-01-22T19:56:15.284Z,96601.16
2023-01-22T20:01:18.157Z,96616.13
2023-01-22T20:06:21.333Z,96621.56
2023-01-22T20:11:24.558Z,96624.19
2023-01-22T20:16:27.446Z,96623.53
2023-01-22T20:21:31.311Z,96636.34
2023-01-22T20:26:36.260Z,96631.41
2023-01-22T20:31:39.261Z,96637.66
2023-01-22T20:36:45.023Z,96642.59
2023-01-22T20:41:47.922Z,96637.31
2023-01-22T20:46:51.573Z,96638.66
2023-01-22T20:51:55.013Z,96644.56
2023-01-22T20:56:58.072Z,96639.16
2023-01-22T21:02:01.311Z,96645.38
2023-01-22T21:07:04.760Z,96633.38
2023-01-22T21:12:07.608Z,96637.16
2023-01-22T21:17:12.231Z,96640.66
2023-01-22T21:22:15.059Z,96640.16
2023-01-22T21:27:18.201Z,96655.25
2023-01-22T21:32:21.401Z,96657.75
2023-01-22T21:37:24.777Z,96665.44
2023-01-22T21:42:45.660Z,96664.47
2023-01-22T21:47:48.818Z,96666.28
2023-01-22T21:52:52.071Z,96668.25
2023-01-22T21:57:55.150Z,96664.47
2023-01-22T22:02:58.406Z,96663.47
2023-01-22T22:08:02.944Z,96664.47
2023-01-22T22:13:06.145Z,96670.53
2023-01-22T22:18:09.231Z,96669.88
2023-01-22T22:23:12.378Z,96669.88
2023-01-22T22:28:15.552Z,96673.19
2023-01-22T22:33:18.773Z,96659.19
2023-01-22T22:38:21.906Z,96657.06
2023-01-22T22:43:25.825Z,96654.44
2023-01-22T22:48:29.210Z,96653.44
2023-01-22T22:53:32.342Z,96659.06
2023-01-22T22:58:35.602Z,96664.97
2023-01-22T23:03:38.701Z,96670.06
2023-01-22T23:08:41.771Z,96679.09
2023-01-22T23:13:44.833Z,96683.72
2023-01-22T23:18:47.939Z,96683.38
2023-01-22T23:23:51.134Z,96689.63
2023-01-22T23:28:56.490Z,96687.47
2023-01-22T23:33:59.693Z,96688.94
2023-01-22T23:39:02.865Z,96696.78
2023-01-22T23:44:05.901Z,96692.84
2023-01-22T23:49:08.932Z,96695.44
2023-01-22T23:54:12.084Z,96688.00
2023-01-22T23:59:15.219Z,96687.91
